Time;durP1;ratioP1;P1;durP2;ratioP2;P2;SDS_P1;SDS_P2;PMS_P1;PMS_P2;Temp;Humidity;BMP_temperature;BMP_pressure;BME280_temperature;BME280_humidity;BME280_pressure;Samples;Min_cycle;Max_cycle;Signal;HPM_P1;HPM_P2
2021/03/06 00:02:08;;;;;;;397.77;109.53;;;;;;;-2.18;74.44;100004.19;4979427;28;20023;-68
2021/03/06 00:04:33;;;;;;;397.20;104.13;;;;;;;-2.17;74.04;100008.44;4974616;28;20027;-68
2021/03/06 00:06:59;;;;;;;392.47;100.57;;;;;;;-2.17;74.03;100010.94;4977178;28;20343;-70
2021/03/06 00:09:24;;;;;;;395.10;101.63;;;;;;;-2.13;73.82;100007.81;4980270;28;20166;-69
2021/03/06 00:11:49;;;;;;;265.40;75.30;;;;;;;-2.03;73.47;100002.47;4979808;28;20118;-68
2021/03/06 00:14:15;;;;;;;15.90;8.00;;;;;;;-1.87;72.77;100009.19;4979521;28;20035;-69
2021/03/06 00:16:41;;;;;;;11.17;5.70;;;;;;;-1.88;72.08;100010.81;4978883;28;20331;-69
2021/03/06 00:19:06;;;;;;;10.47;4.73;;;;;;;-1.82;72.04;100014.44;4979947;28;20099;-69
2021/03/06 00:21:31;;;;;;;14.20;5.97;;;;;;;-1.87;72.08;100012.53;4979778;28;20448;-69
2021/03/06 00:23:57;;;;;;;17.50;7.50;;;;;;;-1.95;72.42;100000.34;4979237;28;20131;-70
2021/03/06 00:26:22;;;;;;;14.93;6.43;;;;;;;-1.96;72.18;100004.53;4978427;28;20121;-69
2021/03/06 00:28:49;;;;;;;12.00;4.57;;;;;;;-1.85;71.81;100000.91;4980018;28;20034;-70
2021/03/06 00:31:14;;;;;;;15.17;6.67;;;;;;;-1.81;71.32;100011.13;4978185;28;20288;-70
2021/03/06 00:33:40;;;;;;;16.63;7.33;;;;;;;-1.81;71.08;100018.66;4976043;28;20039;-70
2021/03/06 00:36:06;;;;;;;9.67;4.87;;;;;;;-1.76;70.47;100020.63;4979415;28;20050;-68
2021/03/06 00:38:31;;;;;;;18.53;7.87;;;;;;;-1.75;70.31;100011.44;4978884;28;20031;-69
2021/03/06 00:40:57;;;;;;;13.53;6.23;;;;;;;-1.79;70.50;100019.63;4980205;28;20031;-70
2021/03/06 00:43:22;;;;;;;13.53;6.60;;;;;;;-1.76;70.40;100025.66;4979597;28;20380;-68
2021/03/06 00:45:47;;;;;;;12.63;6.87;;;;;;;-1.77;69.99;100026.44;4979748;28;20069;-69
2021/03/06 00:48:13;;;;;;;17.47;7.80;;;;;;;-1.81;70.29;100034.59;4978338;28;20047;-69
2021/03/06 00:50:38;;;;;;;9.73;5.87;;;;;;;-1.81;70.43;100021.16;4978489;28;20027;-69
2021/03/06 00:53:04;;;;;;;15.87;9.50;;;;;;;-1.90;70.33;100009.84;4979414;28;20041;-70
2021/03/06 00:55:29;;;;;;;7.00;4.00;;;;;;;-1.85;69.92;100012.63;4979369;28;20746;-69
2021/03/06 00:57:55;;;;;;;18.13;13.37;;;;;;;-1.77;69.89;100023.06;4978151;28;20102;-69
2021/03/06 01:00:22;;;;;;;15.07;11.27;;;;;;;-1.85;70.00;100018.50;4977764;28;20058;-69
2021/03/06 01:02:47;;;;;;;24.53;21.93;;;;;;;-1.80;69.44;100020.41;4979475;28;20027;-68
2021/03/06 01:05:14;;;;;;;83.20;55.90;;;;;;;-1.76;69.29;100017.25;4973762;28;20029;-69
2021/03/06 01:07:40;;;;;;;394.87;104.73;;;;;;;-1.80;69.88;100016.25;4975501;28;20142;-69
2021/03/06 01:10:13;;;;;;;396.43;104.37;;;;;;;-1.80;69.65;100020.41;4977454;28;20267;-68
2021/03/06 01:12:38;;;;;;;391.67;100.70;;;;;;;-1.83;69.83;100018.59;4977160;28;20282;-68
2021/03/06 01:15:05;;;;;;;399.10;106.33;;;;;;;-1.78;69.75;100018.84;4979163;28;20431;-68
2021/03/06 01:17:31;;;;;;;393.73;102.43;;;;;;;-1.85;70.39;100021.03;4976994;28;20034;-68
2021/03/06 01:19:56;;;;;;;395.67;104.50;;;;;;;-1.88;70.63;100020.88;4978344;28;20298;-69
2021/03/06 01:22:22;;;;;;;372.73;106.63;;;;;;;-1.87;70.54;100020.06;4977891;28;20019;-69
2021/03/06 01:24:47;;;;;;;390.13;105.83;;;;;;;-1.92;70.67;100013.97;4979206;28;20031;-70
2021/03/06 01:27:13;;;;;;;393.87;105.37;;;;;;;-1.87;70.24;100020.06;4976288;28;20030;-69
2021/03/06 01:29:38;;;;;;;391.70;102.53;;;;;;;-1.97;70.45;100009.47;4978216;28;20034;-68
2021/03/06 01:32:05;;;;;;;388.13;104.30;;;;;;;-1.90;70.58;100032.47;4978754;28;20042;-67
2021/03/06 01:34:30;;;;;;;390.17;102.77;;;;;;;-1.95;70.62;100021.31;4978109;28;20396;-70
2021/03/06 01:36:57;;;;;;;394.43;106.40;;;;;;;-1.97;71.12;100007.81;4977094;28;20274;-68
2021/03/06 01:39:23;;;;;;;390.37;102.90;;;;;;;-1.96;70.91;100018.75;4959609;28;20026;-69
2021/03/06 01:41:48;;;;;;;391.83;102.27;;;;;;;-1.98;70.83;100020.28;4978276;28;20296;-68
2021/03/06 01:44:14;;;;;;;392.13;102.97;;;;;;;-2.01;70.99;100017.63;4976133;28;20038;-69
2021/03/06 01:46:39;;;;;;;390.67;103.83;;;;;;;-2.02;70.58;100023.44;4976944;28;20097;-69
2021/03/06 01:49:05;;;;;;;390.83;100.30;;;;;;;-2.03;71.14;100025.06;4977600;28;20094;-68
2021/03/06 01:51:31;;;;;;;392.97;102.00;;;;;;;-2.01;71.24;100017.63;4978246;28;20035;-69
2021/03/06 01:53:56;;;;;;;393.10;103.97;;;;;;;-2.13;71.39;100011.97;4977273;28;20376;-69
2021/03/06 01:56:22;;;;;;;392.43;101.57;;;;;;;-2.13;71.80;100022.00;4976782;28;20336;-68
2021/03/06 01:58:47;;;;;;;391.70;102.23;;;;;;;-2.13;71.94;100032.06;4978007;28;20410;-69
2021/03/06 02:01:12;;;;;;;395.13;106.93;;;;;;;-2.14;71.70;100015.25;4976287;28;20033;-69
2021/03/06 02:03:38;;;;;;;390.23;102.80;;;;;;;-2.12;71.31;100027.09;4977713;28;20291;-69
2021/03/06 02:06:03;;;;;;;389.60;102.10;;;;;;;-2.09;71.33;100029.78;4976091;28;20045;-70
2021/03/06 02:08:29;;;;;;;389.40;100.17;;;;;;;-2.21;71.46;100009.06;4975580;28;20026;-70
2021/03/06 02:10:54;;;;;;;392.10;102.87;;;;;;;-2.12;71.40;100023.75;4977768;28;20109;-69
2021/03/06 02:13:57;;;;;;;392.87;101.27;;;;;;;-2.08;71.39;100025.63;4976745;28;20073;-69
2021/03/06 02:16:25;;;;;;;393.87;102.60;;;;;;;-2.11;71.13;100036.38;4976621;28;20050;-69
2021/03/06 02:19:00;;;;;;;389.37;99.07;;;;;;;-2.10;71.38;100027.19;4974745;28;20516;-70
2021/03/06 02:22:12;;;;;;;393.73;103.38;;;;;;;-2.06;71.28;100029.94;4977166;28;20559;-68
2021/03/06 02:24:56;;;;;;;392.10;102.40;;;;;;;-2.18;71.58;100029.31;4976801;28;20065;-69
2021/03/06 02:27:47;;;;;;;389.47;100.00;;;;;;;-2.11;71.25;100033.84;4976943;28;20359;-70
2021/03/06 02:30:13;;;;;;;390.87;102.80;;;;;;;-2.21;71.40;100034.16;4973202;28;20289;-69
2021/03/06 02:32:45;;;;;;;392.87;102.73;;;;;;;-2.21;71.67;100034.16;4976039;28;20274;-69
2021/03/06 02:35:13;;;;;;;392.17;102.30;;;;;;;-2.15;71.34;100034.47;4977337;28;20274;-69
2021/03/06 02:37:48;;;;;;;391.63;102.43;;;;;;;-2.11;71.21;100041.38;4976376;28;20310;-72
2021/03/06 02:40:15;;;;;;;392.25;102.88;;;;;;;-2.15;71.39;100038.63;4974454;28;20340;-68
2021/03/06 02:42:42;;;;;;;391.50;101.67;;;;;;;-2.20;71.22;100040.03;4976126;28;20385;-69
2021/03/06 02:45:09;;;;;;;386.63;97.67;;;;;;;-2.19;71.08;100041.75;4976572;28;20317;-69
2021/03/06 02:47:35;;;;;;;388.37;100.27;;;;;;;-2.16;70.70;100041.91;4976638;28;20674;-69
2021/03/06 02:50:03;;;;;;;391.97;100.90;;;;;;;-2.14;70.97;100040.38;4974525;28;20269;-69
2021/03/06 02:52:29;;;;;;;392.07;101.00;;;;;;;-2.13;70.49;100039.59;4976718;28;20038;-69
2021/03/06 02:54:55;;;;;;;389.00;98.97;;;;;;;-2.16;70.43;100047.81;4979533;28;20667;-69
2021/03/06 02:58:00;;;;;;;390.40;100.17;;;;;;;-2.07;70.29;100044.94;4981486;28;20191;-70
2021/03/06 03:00:42;;;;;;;392.40;104.03;;;;;;;-2.09;69.91;100044.88;4978886;28;20045;-69
2021/03/06 03:03:11;;;;;;;386.40;99.33;;;;;;;-2.08;70.25;100051.59;4975095;28;20369;-70
2021/03/06 03:06:06;;;;;;;389.70;99.40;;;;;;;-2.10;70.00;100048.16;4981519;28;20274;-69
2021/03/06 03:08:41;;;;;;;386.52;97.70;;;;;;;-2.16;70.63;100046.94;4938006;29;20458;-69
2021/03/06 03:11:11;;;;;;;387.90;99.18;;;;;;;-2.26;70.98;100057.28;4937748;29;20054;-69
2021/03/06 03:13:40;;;;;;;387.73;97.43;;;;;;;-2.34;72.04;100051.88;4939031;29;20051;-70
2021/03/06 03:16:19;;;;;;;387.73;99.50;;;;;;;-2.42;72.19;100055.59;4924947;29;20487;-69
2021/03/06 03:18:50;;;;;;;387.17;99.50;;;;;;;-2.37;72.14;100060.06;4938765;29;20267;-70
2021/03/06 03:21:19;;;;;;;390.63;101.10;;;;;;;-2.46;72.76;100063.75;4937719;29;20272;-69
2021/03/06 03:23:49;;;;;;;385.13;98.03;;;;;;;-2.47;72.69;100065.38;4938283;29;20267;-69
2021/03/06 03:26:17;;;;;;;387.67;98.50;;;;;;;-2.47;72.47;100067.91;4940265;29;20506;-70
2021/03/06 03:28:45;;;;;;;388.63;98.77;;;;;;;-2.54;72.57;100059.91;4939024;29;20303;-70
2021/03/06 03:31:12;;;;;;;389.97;101.40;;;;;;;-2.52;72.59;100060.88;4937068;29;20272;-69
2021/03/06 03:33:41;;;;;;;387.43;98.43;;;;;;;-2.39;72.42;100076.72;4938340;29;20321;-69
2021/03/06 03:36:07;;;;;;;393.80;103.00;;;;;;;-2.38;71.90;100075.06;4922372;29;20274;-69
2021/03/06 03:38:35;;;;;;;390.73;100.70;;;;;;;-2.35;71.94;100077.75;4937331;29;20275;-69
2021/03/06 03:41:03;;;;;;;390.43;100.80;;;;;;;-2.28;71.54;100082.31;4937003;29;20306;-69
2021/03/06 03:43:28;;;;;;;394.67;99.53;;;;;;;-2.29;71.65;100069.69;4937901;29;20407;-68
2021/03/06 03:45:55;;;;;;;392.60;102.30;;;;;;;-2.25;71.33;100076.63;4967662;28;20327;-69
2021/03/06 03:48:21;;;;;;;390.63;101.27;;;;;;;-2.26;71.01;100073.22;4978608;28;20311;-69
2021/03/06 03:50:48;;;;;;;389.37;98.93;;;;;;;-2.34;71.09;100077.84;4980454;28;20678;-70
2021/03/06 03:53:14;;;;;;;391.07;100.73;;;;;;;-2.36;71.12;100078.53;4980770;28;20276;-70
2021/03/06 03:55:40;;;;;;;392.13;101.23;;;;;;;-2.35;71.45;100081.13;4980276;28;20276;-70
2021/03/06 03:58:11;;;;;;;390.73;101.37;;;;;;;-2.35;71.37;100077.75;4979743;28;20523;-69
2021/03/06 04:00:37;;;;;;;390.57;99.70;;;;;;;-2.45;71.39;100067.97;4980262;28;20286;-69
2021/03/06 04:03:07;;;;;;;390.30;99.27;;;;;;;-2.31;71.24;100087.19;4980730;28;20258;-68
2021/03/06 04:05:32;;;;;;;391.87;100.43;;;;;;;-2.39;71.23;100085.91;4979087;28;20392;-69
2021/03/06 04:07:57;;;;;;;391.50;100.40;;;;;;;-2.32;70.27;100086.31;4979226;28;20344;-69
2021/03/06 04:10:24;;;;;;;390.87;99.00;;;;;;;-2.18;70.65;100089.59;4980387;28;20093;-69
2021/03/06 04:12:51;;;;;;;390.13;97.70;;;;;;;-2.12;69.91;100089.91;4980934;28;20049;-69
2021/03/06 04:15:18;;;;;;;398.43;108.90;;;;;;;-2.13;70.11;100097.38;4978420;28;20291;-69
2021/03/06 04:17:44;;;;;;;393.80;101.43;;;;;;;-2.22;70.63;100096.88;4980161;28;20270;-69
2021/03/06 04:20:12;;;;;;;391.10;100.13;;;;;;;-2.24;70.11;100079.19;4980720;28;20296;-69
2021/03/06 04:22:37;;;;;;;390.50;98.80;;;;;;;-2.23;69.91;100088.47;4980336;28;20066;-69
2021/03/06 04:25:07;;;;;;;392.47;100.47;;;;;;;-2.09;70.01;100102.66;4979739;28;20290;-69
2021/03/06 04:27:34;;;;;;;390.70;99.97;;;;;;;-2.15;70.41;100099.78;4978980;28;20257;-69
2021/03/06 04:29:59;;;;;;;388.43;102.63;;;;;;;-2.09;69.39;100101.78;4979587;28;20277;-69
2021/03/06 04:32:25;;;;;;;390.50;102.37;;;;;;;-2.09;69.43;100101.78;4979586;28;20278;-69
2021/03/06 04:34:50;;;;;;;389.23;103.23;;;;;;;-2.18;69.94;100099.63;4979567;28;20257;-70
2021/03/06 04:37:16;;;;;;;386.23;104.13;;;;;;;-2.35;70.18;100076.09;4976902;28;20031;-70
2021/03/06 04:39:41;;;;;;;381.37;99.03;;;;;;;-2.21;69.90;100108.66;4980747;28;20031;-69
2021/03/06 04:42:06;;;;;;;386.40;104.70;;;;;;;-2.28;70.42;100104.03;4979084;28;20098;-69
2021/03/06 04:44:32;;;;;;;383.93;100.93;;;;;;;-2.38;70.74;100098.50;4979609;28;20041;-69
2021/03/06 04:46:58;;;;;;;382.40;99.50;;;;;;;-2.39;70.97;100099.31;4978422;28;20034;-69
2021/03/06 04:49:23;;;;;;;377.73;99.97;;;;;;;-2.48;71.30;100102.94;4979262;28;20097;-70
2021/03/06 04:51:49;;;;;;;376.20;99.30;;;;;;;-2.44;71.12;100094.81;4977233;28;20078;-69
2021/03/06 04:54:15;;;;;;;384.80;102.20;;;;;;;-2.47;71.08;100109.72;4977800;28;20039;-68
2021/03/06 04:56:40;;;;;;;380.50;98.70;;;;;;;-2.53;71.51;100102.69;4977484;28;20284;-69
2021/03/06 04:59:05;;;;;;;386.37;102.87;;;;;;;-2.48;71.25;100097.94;4979202;28;20305;-69
2021/03/06 05:01:31;;;;;;;378.07;100.33;;;;;;;-2.52;71.03;100091.88;4976335;28;20419;-69
2021/03/06 05:03:56;;;;;;;386.40;104.10;;;;;;;-2.51;71.24;100097.78;4977899;28;20046;-70
2021/03/06 05:06:22;;;;;;;394.80;110.53;;;;;;;-2.57;71.38;100092.41;4976491;28;20041;-70
2021/03/06 05:08:47;;;;;;;386.57;103.40;;;;;;;-2.48;70.77;100101.31;4979249;28;20057;-69
2021/03/06 05:11:12;;;;;;;392.03;106.50;;;;;;;-2.53;70.92;100089.28;4977437;28;20320;-70
2021/03/06 05:13:38;;;;;;;383.97;102.40;;;;;;;-2.57;71.15;100092.41;4977269;28;20031;-69
2021/03/06 05:16:04;;;;;;;385.37;106.20;;;;;;;-2.56;71.08;100099.16;4975893;28;20034;-70
2021/03/06 05:18:31;;;;;;;378.83;103.27;;;;;;;-2.66;71.07;100092.75;4978206;28;20031;-69
2021/03/06 05:20:57;;;;;;;385.50;105.17;;;;;;;-2.67;71.10;100092.69;4976044;28;20278;-69
2021/03/06 05:23:22;;;;;;;388.37;104.70;;;;;;;-2.67;71.10;100093.50;4976710;28;20602;-69
2021/03/06 05:25:48;;;;;;;387.67;105.27;;;;;;;-2.61;71.15;100103.03;4978023;28;20394;-70
2021/03/06 05:28:18;;;;;;;388.50;105.50;;;;;;;-2.54;71.20;100105.97;4981864;28;20023;-70
2021/03/06 05:30:44;;;;;;;387.10;103.77;;;;;;;-2.54;70.69;100110.13;4981656;28;20058;-70
2021/03/06 05:33:09;;;;;;;388.57;105.73;;;;;;;-2.44;70.55;100114.91;4976598;28;20278;-69
2021/03/06 05:35:35;;;;;;;386.10;106.03;;;;;;;-2.42;71.06;100110.84;4977521;28;20329;-70
2021/03/06 05:38:00;;;;;;;383.40;103.60;;;;;;;-2.40;70.69;100109.25;4975994;28;20098;-69
2021/03/06 05:40:29;;;;;;;382.57;106.07;;;;;;;-2.28;70.52;100116.59;4975719;28;20037;-69
2021/03/06 05:42:55;;;;;;;385.00;105.43;;;;;;;-2.29;70.39;100119.91;4973558;28;20027;-69
2021/03/06 05:45:20;;;;;;;386.93;105.97;;;;;;;-2.29;70.15;100128.28;4978099;28;20352;-69
2021/03/06 05:47:46;;;;;;;392.87;111.63;;;;;;;-2.33;70.10;100132.28;4949352;28;750776;-68
2021/03/06 05:50:12;;;;;;;400.03;113.37;;;;;;;-2.59;71.69;100127.47;4976865;28;20085;-68
2021/03/06 05:52:40;;;;;;;391.13;106.27;;;;;;;-2.73;72.71;100137.50;4976946;28;20035;-69
2021/03/06 05:55:06;;;;;;;390.23;105.87;;;;;;;-2.78;73.31;100138.09;4978381;28;20318;-69
2021/03/06 05:57:34;;;;;;;394.43;110.63;;;;;;;-2.71;73.00;100148.47;4977696;28;20520;-69
2021/03/06 06:00:02;;;;;;;392.57;109.27;;;;;;;-2.66;72.49;100152.09;4977131;28;20341;-69
2021/03/06 06:02:28;;;;;;;395.87;109.93;;;;;;;-2.56;72.46;100161.91;4977483;28;20278;-69
2021/03/06 06:04:54;;;;;;;391.30;107.87;;;;;;;-2.49;71.75;100157.31;4978111;28;20280;-69
2021/03/06 06:07:22;;;;;;;391.37;106.97;;;;;;;-2.36;71.94;100157.22;4977295;28;20287;-69
2021/03/06 06:09:47;;;;;;;393.00;107.47;;;;;;;-2.34;71.49;100159.84;4977118;28;20026;-69
2021/03/06 06:12:13;;;;;;;391.87;106.13;;;;;;;-2.22;71.05;100157.13;4977092;28;20282;-69
2021/03/06 06:14:43;;;;;;;389.93;106.70;;;;;;;-2.10;70.51;100166.22;4978270;28;20074;-69
2021/03/06 06:17:09;;;;;;;385.97;105.43;;;;;;;-2.12;70.65;100169.44;4975648;28;20042;-69
2021/03/06 06:19:36;;;;;;;389.23;106.30;;;;;;;-2.06;70.11;100179.81;4976113;28;20321;-69
2021/03/06 06:22:15;;;;;;;397.90;110.60;;;;;;;-1.98;70.35;100174.44;4976641;28;20290;-69
2021/03/06 06:24:52;;;;;;;393.17;107.37;;;;;;;-1.92;69.99;100184.84;4978151;28;20293;-70
2021/03/06 06:27:29;;;;;;;394.83;107.27;;;;;;;-1.68;68.89;100180.25;4976357;28;20282;-69
2021/03/06 06:29:55;;;;;;;392.73;109.97;;;;;;;-1.68;68.21;100180.25;4973594;28;20274;-70
2021/03/06 06:32:40;;;;;;;391.73;108.80;;;;;;;-1.64;68.09;100186.31;4976470;28;20752;-69
2021/03/06 06:35:08;;;;;;;397.37;113.87;;;;;;;-1.59;67.82;100190.81;4976552;28;20632;-69
2021/03/06 06:37:34;;;;;;;399.13;113.17;;;;;;;-1.43;67.08;100195.00;4975199;28;20282;-69
2021/03/06 06:40:14;;;;;;;398.73;110.67;;;;;;;-1.36;66.30;100194.56;4975290;28;20302;-69
2021/03/06 06:42:40;;;;;;;396.87;109.73;;;;;;;-1.24;66.78;100192.69;4975382;28;20286;-69
2021/03/06 06:45:07;;;;;;;398.83;111.47;;;;;;;-1.15;65.88;100194.84;4976210;28;20703;-69
2021/03/06 06:47:44;;;;;;;400.70;113.43;;;;;;;-0.87;65.55;100194.59;4976796;28;20055;-69
2021/03/06 06:50:12;;;;;;;402.17;112.53;;;;;;;-0.86;65.44;100199.72;4977633;28;20274;-69
2021/03/06 06:52:44;;;;;;;400.70;111.37;;;;;;;-0.68;65.35;100205.66;4978650;28;20393;-69
2021/03/06 06:55:12;;;;;;;403.70;113.20;;;;;;;-0.56;64.94;100213.00;4976713;28;20278;-70
2021/03/06 06:57:51;;;;;;;402.23;113.73;;;;;;;-0.41;64.22;100205.31;4974972;28;20401;-70
2021/03/06 07:00:17;;;;;;;401.97;111.97;;;;;;;-0.47;63.62;100224.38;4977344;28;20286;-70
2021/03/06 07:02:57;;;;;;;406.37;114.43;;;;;;;-0.26;63.30;100221.22;4977236;28;20262;-70
2021/03/06 07:05:27;;;;;;;408.63;115.30;;;;;;;-0.17;63.38;100217.47;4976317;28;20361;-69
2021/03/06 07:07:53;;;;;;;408.57;118.03;;;;;;;-0.16;62.84;100213.28;4976298;28;20278;-69
2021/03/06 07:10:21;;;;;;;408.77;117.37;;;;;;;-0.04;62.42;100226.47;4977019;28;20388;-69
2021/03/06 07:12:59;;;;;;;413.27;119.57;;;;;;;0.06;62.44;100223.63;4976430;28;20279;-68
2021/03/06 07:15:26;;;;;;;410.63;119.00;;;;;;;0.08;62.34;100222.06;4975237;28;20671;-68
2021/03/06 07:17:53;;;;;;;413.83;120.03;;;;;;;0.20;62.08;100221.75;4976913;28;20520;-70
2021/03/06 07:20:21;;;;;;;408.87;117.20;;;;;;;0.39;61.42;100226.88;4977051;28;20389;-69
2021/03/06 07:22:51;;;;;;;411.83;119.17;;;;;;;0.35;61.33;100230.03;4976684;28;20308;-70
2021/03/06 07:25:17;;;;;;;415.93;123.07;;;;;;;0.35;61.23;100235.09;4974042;28;20301;-69
2021/03/06 07:27:43;;;;;;;413.77;120.13;;;;;;;0.37;61.93;100243.59;4977141;28;20604;-69
2021/03/06 07:30:11;;;;;;;415.37;123.03;;;;;;;0.55;61.58;100236.91;4976881;28;20337;-65
2021/03/06 07:32:41;;;;;;;420.47;123.13;;;;;;;0.70;61.83;100239.25;4974892;28;20279;-69
2021/03/06 07:35:09;;;;;;;417.37;125.23;;;;;;;0.70;60.75;100242.63;4973076;28;20609;-68
2021/03/06 07:37:35;;;;;;;418.63;124.43;;;;;;;0.69;61.35;100243.44;4975604;28;20274;-68
2021/03/06 07:40:06;;;;;;;417.80;122.97;;;;;;;0.57;61.91;100232.78;4977139;28;20571;-68
2021/03/06 07:42:49;;;;;;;421.13;126.97;;;;;;;0.81;61.46;100249.03;4978873;28;20270;-68
2021/03/06 07:45:19;;;;;;;415.70;121.33;;;;;;;0.77;60.53;100251.34;4979041;28;20639;-68
2021/03/06 07:47:47;;;;;;;418.77;124.77;;;;;;;0.83;60.55;100249.97;4979054;28;20911;-68
2021/03/06 07:50:23;;;;;;;420.03;125.87;;;;;;;0.95;60.14;100249.66;4977924;28;20282;-69
2021/03/06 07:52:49;;;;;;;422.57;127.87;;;;;;;0.99;59.26;100250.66;4980621;28;20536;-69
2021/03/06 07:55:15;;;;;;;422.83;126.10;;;;;;;1.17;59.32;100249.84;4978877;28;20285;-68
2021/03/06 07:58:09;;;;;;;422.10;125.53;;;;;;;1.41;58.48;100247.50;4979059;28;20042;-68
2021/03/06 08:00:38;;;;;;;418.93;124.17;;;;;;;1.33;58.26;100252.22;4979198;28;20313;-68
2021/03/06 08:03:30;;;;;;;421.40;124.73;;;;;;;1.36;58.17;100251.47;4980883;28;20270;-70
2021/03/06 08:06:00;;;;;;;426.07;127.47;;;;;;;1.38;58.91;100252.41;4978964;28;20262;-68
2021/03/06 08:08:34;;;;;;;424.37;131.30;;;;;;;1.52;58.56;100264.00;4979372;28;20310;-68
2021/03/06 08:11:06;;;;;;;422.55;129.48;;;;;;;1.65;58.54;100266.25;4978895;28;20030;-70
2021/03/06 08:13:59;;;;;;;447.03;158.93;;;;;;;1.81;57.57;100268.63;4978728;28;20431;-69
2021/03/06 08:16:27;;;;;;;13.67;5.53;;;;;;;1.95;57.49;100260.75;4972651;28;20709;-67
2021/03/06 08:19:01;;;;;;;13.63;5.33;;;;;;;2.09;56.20;100272.28;4976355;28;20030;-69
2021/03/06 08:21:43;;;;;;;10.07;5.10;;;;;;;2.20;56.67;100271.94;4979559;28;20294;-67
2021/03/06 08:24:11;;;;;;;10.03;4.77;;;;;;;2.18;55.70;100265.06;4978925;28;20133;-68
2021/03/06 08:26:38;;;;;;;10.90;5.13;;;;;;;2.17;56.02;100269.25;4976366;28;20080;-69
2021/03/06 08:29:23;;;;;;;6.70;3.57;;;;;;;2.20;55.18;100263.47;4977431;28;20054;-70
2021/03/06 08:32:15;;;;;;;8.83;4.90;;;;;;;2.17;55.51;100266.72;4977186;28;20021;-69
2021/03/06 08:34:55;;;;;;;16.50;6.50;;;;;;;2.33;55.13;100264.84;4969140;28;20038;-70
2021/03/06 08:37:21;;;;;;;11.33;4.97;;;;;;;2.48;54.92;100261.22;4977264;28;20455;-69
2021/03/06 08:39:58;;;;;;;8.60;4.07;;;;;;;2.57;54.24;100264.13;4980501;28;20047;-69
2021/03/06 08:42:39;;;;;;;13.70;5.90;;;;;;;2.68;53.61;100262.00;4980007;28;20026;-70
2021/03/06 08:45:09;;;;;;;11.37;5.57;;;;;;;2.87;53.99;100271.16;4978113;28;20041;-69
2021/03/06 08:47:39;;;;;;;8.17;4.67;;;;;;;2.80;52.66;100270.03;4978180;28;20416;-70
2021/03/06 08:50:12;;;;;;;8.23;4.03;;;;;;;3.02;52.08;100275.13;4981221;28;20041;-69
2021/03/06 08:52:39;;;;;;;10.10;4.97;;;;;;;2.95;50.00;100274.84;4977619;28;20037;-70
2021/03/06 08:55:07;;;;;;;13.63;5.37;;;;;;;2.97;51.00;100275.78;4977477;28;20035;-69
2021/03/06 08:57:37;;;;;;;9.37;4.20;;;;;;;2.96;48.87;100281.66;4976199;28;20061;-67
2021/03/06 09:00:18;;;;;;;10.87;4.77;;;;;;;2.97;50.31;100279.16;4978505;28;20066;-67
2021/03/06 09:02:44;;;;;;;13.77;5.37;;;;;;;3.11;51.66;100279.66;4977773;28;20098;-67
2021/03/06 09:05:12;;;;;;;16.30;6.80;;;;;;;3.38;49.98;100273.09;4973496;28;20033;-67
2021/03/06 09:07:52;;;;;;;8.87;3.87;;;;;;;3.37;48.25;100276.41;4974060;28;20051;-68
2021/03/06 09:10:25;;;;;;;10.73;5.00;;;;;;;3.43;48.18;100274.13;4977696;28;20018;-68
2021/03/06 09:12:56;;;;;;;6.97;3.53;;;;;;;3.45;47.47;100275.03;4977005;28;20448;-68
2021/03/06 09:15:36;;;;;;;12.20;5.40;;;;;;;3.73;47.78;100273.47;4972123;28;20450;-67
2021/03/06 09:18:04;;;;;;;13.37;5.37;;;;;;;3.84;49.23;100270.47;4972071;28;20027;-68
2021/03/06 09:20:36;;;;;;;12.17;6.00;;;;;;;3.80;46.73;100266.13;4976218;28;20042;-68
2021/03/06 09:23:02;;;;;;;10.80;3.83;;;;;;;3.54;46.05;100266.88;4981919;28;20030;-67
2021/03/06 09:25:38;;;;;;;11.77;5.57;;;;;;;3.83;48.34;100262.81;4983515;28;20476;-68
2021/03/06 09:28:05;;;;;;;10.50;3.47;;;;;;;3.89;47.41;100258.81;4983972;28;20058;-65
2021/03/06 09:30:39;;;;;;;10.67;4.73;;;;;;;3.96;46.27;100264.94;4981715;28;20019;-67
2021/03/06 09:33:23;;;;;;;9.00;4.20;;;;;;;3.65;46.20;100265.56;4979152;28;20350;-68
2021/03/06 09:36:00;;;;;;;9.07;4.10;;;;;;;3.41;46.76;100269.78;4977709;28;20684;-67
2021/03/06 09:38:26;;;;;;;10.50;5.43;;;;;;;3.29;47.49;100272.75;4975995;28;20042;-67
2021/03/06 09:40:53;;;;;;;7.90;3.97;;;;;;;3.38;47.73;100270.56;4975864;28;20030;-69
2021/03/06 09:43:30;;;;;;;11.30;5.87;;;;;;;3.50;45.58;100258.31;4975836;28;20022;-68
2021/03/06 09:45:57;;;;;;;17.43;6.70;;;;;;;3.63;43.95;100269.75;4968384;28;20023;-65
2021/03/06 09:48:23;;;;;;;9.93;4.13;;;;;;;3.78;43.42;100251.66;4971733;28;20057;-68
2021/03/06 09:50:54;;;;;;;6.17;2.77;;;;;;;4.27;42.12;100264.28;4970662;28;20024;-69
2021/03/06 09:53:22;;;;;;;9.87;3.97;;;;;;;4.45;39.33;100259.81;4976147;28;20269;-69
2021/03/06 09:56:08;;;;;;;10.37;3.70;;;;;;;4.13;38.17;100264.69;4974057;28;20026;-69
2021/03/06 09:58:34;;;;;;;12.85;5.18;;;;;;;4.10;39.66;100263.75;4973788;28;20107;-70
2021/03/06 10:01:20;;;;;;;10.23;3.77;;;;;;;4.28;38.10;100259.28;4970990;28;20476;-69
2021/03/06 10:03:48;;;;;;;8.77;3.10;;;;;;;4.20;37.90;100260.66;4969885;28;20030;-69
2021/03/06 10:06:17;;;;;;;12.00;3.70;;;;;;;4.35;38.13;100261.19;4971743;28;20027;-69
2021/03/06 10:08:52;;;;;;;10.40;3.33;;;;;;;4.50;39.50;100263.31;4970280;28;20041;-69
2021/03/06 10:11:18;;;;;;;7.68;2.92;;;;;;;4.49;38.13;100248.91;4970967;28;20030;-68
2021/03/06 10:13:49;;;;;;;7.43;2.73;;;;;;;4.68;36.35;100255.41;4967758;28;20595;-68
2021/03/06 10:16:15;;;;;;;7.07;2.60;;;;;;;4.85;36.51;100234.78;4967786;28;20030;-69
2021/03/06 10:18:41;;;;;;;8.03;2.73;;;;;;;4.64;37.33;100257.00;4971932;28;20525;-68
2021/03/06 10:21:12;;;;;;;4.57;2.10;;;;;;;4.68;37.10;100258.81;4968052;28;20015;-68
2021/03/06 10:23:38;;;;;;;4.07;2.30;;;;;;;4.42;38.58;100260.53;4968032;28;20023;-67
2021/03/06 10:26:18;;;;;;;2.03;1.73;;;;;;;4.71;39.05;100258.91;4973582;28;20046;-67
2021/03/06 10:28:44;;;;;;;3.40;1.60;;;;;;;4.58;36.17;100259.38;4971238;28;20019;-67
2021/03/06 10:31:32;;;;;;;2.23;1.27;;;;;;;4.24;36.51;100259.97;4969335;28;20027;-67
2021/03/06 10:33:59;;;;;;;2.63;1.60;;;;;;;4.47;35.86;100260.69;4964085;28;20031;-66
2021/03/06 10:36:25;;;;;;;2.57;1.60;;;;;;;4.51;37.15;100263.38;4963498;28;20039;-67
2021/03/06 10:39:15;;;;;;;3.57;1.30;;;;;;;4.68;35.45;100247.78;4967322;28;20030;-68
2021/03/06 10:41:41;;;;;;;1.77;1.43;;;;;;;4.31;35.20;100254.28;4967113;28;20096;-69
2021/03/06 10:44:07;;;;;;;2.40;2.20;;;;;;;4.31;36.90;100249.19;4962398;28;20035;-69
2021/03/06 10:46:34;;;;;;;3.00;2.17;;;;;;;4.78;38.31;100245.59;4965409;28;20030;-68
2021/03/06 10:49:04;;;;;;;2.20;2.00;;;;;;;5.02;38.94;100242.91;4965617;28;20396;-69
2021/03/06 10:51:44;;;;;;;4.07;2.50;;;;;;;5.43;37.36;100244.09;4966617;28;20062;-69
2021/03/06 10:54:12;;;;;;;5.80;2.80;;;;;;;5.41;35.09;100236.41;4966666;28;20057;-68
2021/03/06 10:56:38;;;;;;;4.77;3.00;;;;;;;5.18;34.19;100228.97;4964830;28;20055;-68
2021/03/06 10:59:05;;;;;;;7.53;2.63;;;;;;;5.44;35.18;100233.94;4965474;28;20019;-67
2021/03/06 11:01:53;;;;;;;5.57;3.03;;;;;;;5.65;35.18;100238.72;4966405;28;20031;-67
2021/03/06 11:04:30;;;;;;;7.33;2.67;;;;;;;5.59;36.35;100230.09;4968782;28;20102;-67
2021/03/06 11:07:07;;;;;;;3.83;2.33;;;;;;;5.06;35.81;100221.84;4968525;28;20322;-67
2021/03/06 11:09:36;;;;;;;7.53;3.43;;;;;;;5.02;37.50;100218.34;4974716;28;20018;-67
2021/03/06 11:12:18;;;;;;;4.47;2.50;;;;;;;5.27;38.53;100219.88;4970118;28;20066;-66
2021/03/06 11:14:45;;;;;;;5.07;3.13;;;;;;;4.81;39.77;100220.25;4975517;28;20276;-67
2021/03/06 11:17:14;;;;;;;5.73;3.10;;;;;;;5.33;39.04;100214.13;4973867;28;20039;-64
2021/03/06 11:19:42;;;;;;;8.37;4.53;;;;;;;5.41;37.24;100221.13;4977772;28;20049;-67